LPPD/PDL METAR and TAF weather

Enter ICAO airport designator
Station Type Date Time Source
LPPD METAR 2019/10/23 02:00 UTC NOAA

LPPD 230200Z 15006KT 9999 FEW022 SCT045 20/13 Q1020


Station Type Date Time Source
LPPD Decoded METAR 2019/10/23 02:00 UTC NOAA

Ponta Delgada / Nordela Acores , Portugal (LPPD) 37-44N 025-42W 72M
Oct 22, 2019 - 10:00 PM EDT / 2019.10.23 0200 UTC
Wind: from the SSE (150 degrees) at 7 MPH (6 KT):0
Visibility: greater than 7 mile(s):0
Sky conditions: partly cloudy
Temperature: 68 F (20 C)
Dew Point: 55 F (13 C)
Relative Humidity: 64%
Pressure (altimeter): 30.12 in. Hg (1020 hPa)
ob: LPPD 230200Z 15006KT 9999 FEW022 SCT045 20/13 Q1020
cycle: 2

Station Type Date Time Source
LPPD TAF 2019/10/22 18:18 UTC NOAA

TAF LPPD 221700Z 2218/2318 21008KT 9999 SCT025
TEMPO 2218/2220 FEW020 BKN040
BECMG 2220/2222 SCT012 BKN030
TEMPO 2222/2309 5000 -RADZ BR SCT005 BKN010
BECMG 2309/2312 18013KT

Example: see airport list